createdAt,value
2018-12-26T00:00:41.221Z,14.73
2018-12-26T00:01:41.137Z,14.79
2018-12-26T00:02:41.132Z,14.73
2018-12-26T00:03:41.073Z,14.74
2018-12-26T00:04:41.065Z,14.66
2018-12-26T00:05:41.164Z,14.70
2018-12-26T00:06:41.040Z,14.67
2018-12-26T00:07:41.043Z,14.70
2018-12-26T00:08:41.011Z,14.74
2018-12-26T00:09:40.997Z,14.74
2018-12-26T00:10:41.030Z,14.78
2018-12-26T00:11:40.985Z,14.68
2018-12-26T00:12:40.977Z,14.79
2018-12-26T00:13:40.957Z,14.68
2018-12-26T00:14:40.974Z,14.78
2018-12-26T00:15:40.932Z,14.78
2018-12-26T00:16:40.949Z,14.73
2018-12-26T00:17:40.908Z,14.74
2018-12-26T00:18:41.046Z,14.79
2018-12-26T00:19:41.021Z,14.82
2018-12-26T00:20:40.956Z,14.74
2018-12-26T00:21:40.881Z,14.74
2018-12-26T00:22:40.909Z,14.81
2018-12-26T00:23:40.847Z,14.79
2018-12-26T00:24:40.843Z,14.74
2018-12-26T00:25:40.830Z,14.81
2018-12-26T00:26:40.873Z,14.81
2018-12-26T00:27:40.799Z,14.78
2018-12-26T00:28:40.796Z,14.79
2018-12-26T00:29:40.791Z,14.79
2018-12-26T00:30:40.859Z,14.81
2018-12-26T00:31:40.767Z,14.77
2018-12-26T00:32:40.772Z,14.81
2018-12-26T00:33:40.759Z,14.79
2018-12-26T00:34:40.724Z,14.85
2018-12-26T00:35:40.715Z,14.85
2018-12-26T00:36:40.712Z,14.78
2018-12-26T00:37:40.717Z,14.77
2018-12-26T00:38:40.693Z,14.82
2018-12-26T00:39:40.681Z,14.81
2018-12-26T00:40:40.670Z,14.81
2018-12-26T00:41:40.653Z,14.85
2018-12-26T00:42:40.669Z,14.77
2018-12-26T00:43:40.689Z,14.87
2018-12-26T00:44:40.666Z,14.87
2018-12-26T00:45:40.654Z,14.85
2018-12-26T00:46:40.616Z,14.78
2018-12-26T00:47:40.686Z,14.82
2018-12-26T00:48:40.677Z,14.89
2018-12-26T00:49:40.622Z,14.78
2018-12-26T00:50:40.579Z,14.87
2018-12-26T00:51:40.621Z,14.82
2018-12-26T00:52:40.582Z,14.78
2018-12-26T00:53:40.612Z,14.81
2018-12-26T00:54:40.523Z,14.85
2018-12-26T00:55:40.507Z,14.79
2018-12-26T00:56:40.498Z,14.87
2018-12-26T00:57:40.488Z,14.85
2018-12-26T00:58:40.494Z,14.85
2018-12-26T00:59:40.476Z,14.77
2018-12-26T01:00:40.462Z,14.87
2018-12-26T01:01:40.447Z,14.74
2018-12-26T01:02:40.435Z,14.77
2018-12-26T01:03:40.435Z,14.79
2018-12-26T01:04:40.437Z,14.89
2018-12-26T01:05:40.473Z,14.85
2018-12-26T01:06:40.420Z,14.85
2018-12-26T01:07:40.423Z,14.78
2018-12-26T01:08:40.503Z,14.82
2018-12-26T01:09:40.389Z,14.81
2018-12-26T01:10:40.421Z,14.81
2018-12-26T01:11:40.389Z,14.90
2018-12-26T01:12:40.336Z,14.92
2018-12-26T01:13:40.382Z,14.78
2018-12-26T01:14:40.328Z,14.85
2018-12-26T01:15:40.345Z,14.82
2018-12-26T01:16:40.421Z,14.81
2018-12-26T01:17:40.329Z,14.79
2018-12-26T01:18:40.277Z,14.87
2018-12-26T01:19:40.315Z,14.78
2018-12-26T01:20:40.330Z,14.85
2018-12-26T01:21:40.323Z,14.87
2018-12-26T01:22:40.258Z,14.78
2018-12-26T01:23:40.272Z,14.78
2018-12-26T01:24:40.292Z,14.85
2018-12-26T01:25:40.230Z,14.78
2018-12-26T01:26:40.186Z,14.81
2018-12-26T01:27:40.179Z,14.74
2018-12-26T01:28:40.201Z,14.79
2018-12-26T01:29:40.172Z,14.78
2018-12-26T01:30:40.186Z,14.85
2018-12-26T01:31:40.213Z,14.79
2018-12-26T01:32:40.158Z,14.78
2018-12-26T01:33:40.176Z,14.71
2018-12-26T01:34:40.143Z,14.77
2018-12-26T01:35:40.101Z,14.78
2018-12-26T01:36:40.080Z,14.86
2018-12-26T01:37:40.102Z,14.81
2018-12-26T01:38:40.090Z,14.79
2018-12-26T01:39:40.134Z,14.78
2018-12-26T01:40:40.094Z,14.78
2018-12-26T01:41:40.040Z,14.81
2018-12-26T01:42:40.033Z,14.78
2018-12-26T01:43:40.029Z,14.81
2018-12-26T01:44:40.027Z,14.86
2018-12-26T01:45:40.073Z,14.81
2018-12-26T01:46:39.985Z,14.90
2018-12-26T01:47:40.061Z,14.82
2018-12-26T01:48:40.041Z,14.89
2018-12-26T01:49:40.033Z,14.78
2018-12-26T01:50:40.002Z,14.90
2018-12-26T01:51:39.997Z,14.90
2018-12-26T01:52:39.919Z,14.89
2018-12-26T01:53:39.901Z,14.92
2018-12-26T01:54:39.899Z,14.90
2018-12-26T01:55:39.881Z,14.92
2018-12-26T01:56:39.890Z,14.89
2018-12-26T01:57:39.883Z,14.93
2018-12-26T01:58:39.846Z,14.92
2018-12-26T01:59:39.834Z,14.82
2018-12-26T02:00:39.823Z,14.87
2018-12-26T02:01:39.842Z,14.92
2018-12-26T02:02:39.801Z,14.90
2018-12-26T02:03:39.796Z,14.92
2018-12-26T02:04:39.785Z,14.86
2018-12-26T02:05:39.774Z,14.92
2018-12-26T02:06:39.761Z,14.97
2018-12-26T02:07:39.795Z,14.94
2018-12-26T02:08:39.737Z,14.89
2018-12-26T02:09:39.729Z,14.92
2018-12-26T02:10:39.716Z,14.92
2018-12-26T02:11:39.728Z,14.87
2018-12-26T02:12:39.724Z,14.89
2018-12-26T02:13:39.688Z,14.94
2018-12-26T02:14:39.671Z,14.92
2018-12-26T02:15:39.669Z,14.87
2018-12-26T02:16:39.652Z,14.82
2018-12-26T02:17:39.642Z,14.93
2018-12-26T02:18:39.648Z,14.90
2018-12-26T02:19:39.624Z,14.86
2018-12-26T02:20:39.607Z,14.90
2018-12-26T02:21:39.602Z,14.93
2018-12-26T02:22:39.589Z,14.97
2018-12-26T02:23:39.589Z,14.94
2018-12-26T02:24:39.569Z,14.97
2018-12-26T02:25:39.558Z,14.90
2018-12-26T02:26:39.542Z,14.94
2018-12-26T02:27:39.532Z,14.92
2018-12-26T02:28:39.541Z,14.94
2018-12-26T02:29:39.508Z,14.92
2018-12-26T02:30:39.499Z,14.94
2018-12-26T02:31:39.501Z,14.97
2018-12-26T02:32:39.483Z,14.97
2018-12-26T02:33:39.571Z,14.96
2018-12-26T02:34:39.475Z,14.92
2018-12-26T02:35:39.458Z,15.00
2018-12-26T02:36:39.444Z,14.89
2018-12-26T02:37:39.422Z,14.96
2018-12-26T02:38:39.414Z,14.92
2018-12-26T02:39:39.425Z,15.00
2018-12-26T02:40:39.394Z,14.99
2018-12-26T02:41:39.391Z,14.99
2018-12-26T02:42:39.370Z,14.94
2018-12-26T02:43:39.371Z,14.97
2018-12-26T02:44:39.402Z,14.97
2018-12-26T02:45:39.341Z,14.90
2018-12-26T02:46:39.334Z,14.96
2018-12-26T02:47:39.325Z,14.93
2018-12-26T02:48:39.364Z,14.99
2018-12-26T02:49:39.377Z,14.94
2018-12-26T02:50:39.310Z,14.93
2018-12-26T02:51:39.280Z,14.96
2018-12-26T02:52:39.266Z,14.94
2018-12-26T02:53:39.249Z,14.96
2018-12-26T02:54:40.581Z,14.97
2018-12-26T02:55:39.256Z,14.93
2018-12-26T02:56:47.464Z,14.90
2018-12-26T02:57:40.208Z,14.92
2018-12-26T02:58:39.193Z,14.94
2018-12-26T02:59:39.200Z,14.97
2018-12-26T03:00:39.179Z,14.89
2018-12-26T03:01:39.186Z,14.90
2018-12-26T03:02:39.170Z,14.96
2018-12-26T03:03:39.151Z,14.96
2018-12-26T03:04:39.130Z,14.96
2018-12-26T03:05:39.128Z,14.93
2018-12-26T03:06:39.137Z,14.97
2018-12-26T03:07:39.106Z,14.89
2018-12-26T03:08:39.085Z,14.93
2018-12-26T03:09:39.080Z,14.93
2018-12-26T03:10:39.065Z,14.92
2018-12-26T03:11:39.072Z,14.90
2018-12-26T03:12:39.050Z,14.92
2018-12-26T03:13:39.041Z,14.92
2018-12-26T03:14:39.027Z,14.99
2018-12-26T03:15:39.014Z,14.93
2018-12-26T03:16:39.016Z,14.96
2018-12-26T03:17:38.998Z,14.97
2018-12-26T03:18:38.979Z,14.92
2018-12-26T03:19:38.982Z,14.96
2018-12-26T03:20:38.959Z,14.97
2018-12-26T03:21:38.977Z,14.93
2018-12-26T03:22:38.938Z,14.97
2018-12-26T03:23:38.926Z,14.93
2018-12-26T03:24:38.916Z,14.94
2018-12-26T03:25:38.910Z,14.94
2018-12-26T03:26:38.899Z,14.89
2018-12-26T03:27:38.902Z,14.92
2018-12-26T03:28:38.869Z,14.93
2018-12-26T03:29:38.862Z,14.93
2018-12-26T03:30:38.850Z,14.90
2018-12-26T03:31:38.843Z,14.92
2018-12-26T03:32:38.865Z,14.97
2018-12-26T03:33:38.835Z,14.90
2018-12-26T03:34:38.816Z,14.93
2018-12-26T03:35:38.799Z,14.93
2018-12-26T03:36:38.790Z,14.97
2018-12-26T03:37:38.795Z,14.93
2018-12-26T03:38:38.777Z,15.02
2018-12-26T03:39:38.757Z,14.94
2018-12-26T03:40:38.752Z,14.92
2018-12-26T03:41:38.736Z,14.92
2018-12-26T03:42:38.740Z,14.97
2018-12-26T03:43:38.711Z,14.92
2018-12-26T03:44:38.705Z,14.94
2018-12-26T03:45:38.694Z,14.87
2018-12-26T03:46:38.679Z,14.92
2018-12-26T03:47:38.693Z,14.96
2018-12-26T03:48:38.668Z,14.92
2018-12-26T03:49:38.649Z,14.90
2018-12-26T03:50:38.639Z,14.93
2018-12-26T03:51:38.639Z,14.94
2018-12-26T03:52:38.632Z,14.82
2018-12-26T03:53:38.616Z,14.94
2018-12-26T03:54:38.599Z,14.94
2018-12-26T03:55:38.587Z,14.89
2018-12-26T03:56:38.573Z,14.92
2018-12-26T03:57:38.594Z,14.93
2018-12-26T03:58:38.553Z,14.87
2018-12-26T03:59:38.541Z,14.94
2018-12-26T04:00:38.527Z,14.89
2018-12-26T04:01:38.518Z,14.86
2018-12-26T04:02:38.511Z,14.90
2018-12-26T04:03:38.514Z,14.90
2018-12-26T04:04:38.484Z,14.85
2018-12-26T04:05:38.474Z,14.97
2018-12-26T04:06:38.471Z,14.97
2018-12-26T04:07:38.453Z,14.86
2018-12-26T04:08:38.462Z,14.85
2018-12-26T04:09:38.436Z,14.93
2018-12-26T04:10:38.423Z,14.96
2018-12-26T04:11:38.414Z,14.96
2018-12-26T04:12:38.401Z,14.94
2018-12-26T04:13:38.405Z,15.00
2018-12-26T04:14:38.376Z,14.96
2018-12-26T04:15:38.367Z,14.94
2018-12-26T04:16:38.362Z,14.93
2018-12-26T04:17:38.362Z,14.94
2018-12-26T04:18:38.363Z,14.97
2018-12-26T04:19:38.320Z,14.96
2018-12-26T04:20:38.329Z,14.94
2018-12-26T04:21:38.298Z,14.93
2018-12-26T04:22:38.289Z,14.90
2018-12-26T04:23:38.277Z,14.90
2018-12-26T04:24:38.280Z,14.94
2018-12-26T04:25:38.255Z,14.97
2018-12-26T04:26:38.253Z,14.92
2018-12-26T04:27:38.237Z,14.97
2018-12-26T04:28:38.226Z,14.96
2018-12-26T04:29:38.227Z,14.97
2018-12-26T04:30:38.204Z,14.94
2018-12-26T04:31:38.194Z,14.93
2018-12-26T04:32:38.189Z,14.90
2018-12-26T04:33:38.167Z,14.93
2018-12-26T04:34:38.177Z,14.97
2018-12-26T04:35:38.150Z,14.96
2018-12-26T04:36:38.136Z,14.94
2018-12-26T04:37:38.126Z,15.02
2018-12-26T04:38:38.122Z,14.96
2018-12-26T04:39:38.131Z,14.92
2018-12-26T04:40:38.094Z,14.97
2018-12-26T04:41:38.078Z,14.97
2018-12-26T04:42:38.077Z,14.90
2018-12-26T04:43:38.065Z,14.93
2018-12-26T04:44:38.050Z,14.90
2018-12-26T04:45:38.060Z,14.96
2018-12-26T04:46:38.030Z,14.90
2018-12-26T04:47:38.013Z,14.97
2018-12-26T04:48:38.012Z,14.97
2018-12-26T04:49:37.998Z,14.90
2018-12-26T04:50:38.011Z,14.92
2018-12-26T04:51:37.971Z,14.93
2018-12-26T04:52:37.964Z,14.90
2018-12-26T04:53:37.951Z,14.92
2018-12-26T04:54:37.933Z,14.89
2018-12-26T04:55:37.931Z,14.94
2018-12-26T04:56:37.932Z,14.94
2018-12-26T04:57:37.907Z,14.93
2018-12-26T04:58:37.891Z,14.97
2018-12-26T04:59:37.886Z,14.93
2018-12-26T05:00:37.873Z,14.94
2018-12-26T05:01:37.876Z,14.93
2018-12-26T05:02:37.852Z,14.94
2018-12-26T05:03:37.839Z,14.99
2018-12-26T05:04:37.827Z,14.90
2018-12-26T05:05:37.827Z,14.93
2018-12-26T05:06:37.822Z,14.93
2018-12-26T05:07:37.799Z,14.94
2018-12-26T05:08:37.784Z,14.92
2018-12-26T05:09:37.770Z,15.00
2018-12-26T05:10:37.759Z,14.97
2018-12-26T05:11:37.773Z,14.92
2018-12-26T05:12:37.739Z,14.97
2018-12-26T05:13:37.739Z,14.93
2018-12-26T05:14:37.717Z,14.97
2018-12-26T05:15:37.710Z,14.97
2018-12-26T05:16:37.700Z,15.05
2018-12-26T05:17:37.700Z,14.94
2018-12-26T05:18:37.675Z,15.02
2018-12-26T05:19:37.667Z,14.93
2018-12-26T05:20:37.652Z,14.92
2018-12-26T05:21:37.642Z,14.97
2018-12-26T05:22:37.666Z,15.00
2018-12-26T05:23:37.625Z,14.93
2018-12-26T05:24:37.605Z,14.94
2018-12-26T05:25:37.607Z,14.90
2018-12-26T05:26:37.594Z,14.92
2018-12-26T05:27:37.574Z,14.97
2018-12-26T05:28:37.584Z,14.92
2018-12-26T05:29:37.552Z,14.92
2018-12-26T05:30:37.545Z,14.94
2018-12-26T05:31:37.533Z,14.97
2018-12-26T05:32:37.541Z,14.94
2018-12-26T05:33:37.526Z,14.94
2018-12-26T05:34:37.506Z,14.93
2018-12-26T05:35:37.489Z,14.96
2018-12-26T05:36:37.474Z,14.93
2018-12-26T05:37:37.462Z,15.02
2018-12-26T05:38:37.469Z,14.99
2018-12-26T05:39:37.444Z,14.93
2018-12-26T05:40:37.433Z,15.02
2018-12-26T05:41:37.423Z,14.96
2018-12-26T05:42:37.415Z,14.97
2018-12-26T05:43:37.429Z,15.05
2018-12-26T05:44:37.392Z,14.90
2018-12-26T05:45:37.381Z,14.97
2018-12-26T05:46:37.368Z,15.04
2018-12-26T05:47:37.358Z,15.07
2018-12-26T05:48:37.353Z,14.97
2018-12-26T05:49:37.362Z,15.02
2018-12-26T05:50:37.441Z,14.97
2018-12-26T05:51:37.315Z,14.99
2018-12-26T05:52:37.310Z,14.99
2018-12-26T05:53:37.293Z,15.02
2018-12-26T05:54:37.297Z,14.97
2018-12-26T05:55:37.280Z,14.97
2018-12-26T05:56:37.763Z,14.96
2018-12-26T05:57:42.677Z,14.93
2018-12-26T05:58:38.242Z,14.94
2018-12-26T05:59:37.246Z,14.99
2018-12-26T06:00:37.224Z,14.93
2018-12-26T06:01:37.208Z,15.00
2018-12-26T06:02:37.198Z,15.04
2018-12-26T06:03:37.189Z,15.04
2018-12-26T06:04:37.186Z,15.00
2018-12-26T06:05:37.164Z,15.00
2018-12-26T06:06:37.151Z,15.02
2018-12-26T06:07:37.140Z,14.96
2018-12-26T06:08:37.130Z,15.00
2018-12-26T06:09:37.133Z,14.99
2018-12-26T06:10:37.111Z,14.94
2018-12-26T06:11:37.105Z,14.94
2018-12-26T06:12:37.089Z,14.93
2018-12-26T06:13:37.071Z,15.00
2018-12-26T06:14:37.094Z,15.00
2018-12-26T06:15:37.053Z,15.02
2018-12-26T06:16:37.043Z,14.92
2018-12-26T06:17:37.032Z,15.02
2018-12-26T06:18:37.014Z,14.93
2018-12-26T06:19:37.008Z,14.97
2018-12-26T06:20:37.012Z,14.97
2018-12-26T06:21:36.984Z,14.96
2018-12-26T06:22:36.974Z,14.97
2018-12-26T06:23:36.963Z,14.96
2018-12-26T06:24:36.957Z,14.94
2018-12-26T06:25:36.958Z,14.92
2018-12-26T06:26:36.936Z,15.00
2018-12-26T06:27:36.927Z,14.87
2018-12-26T06:28:36.910Z,14.92
2018-12-26T06:29:36.897Z,14.92
2018-12-26T06:30:36.899Z,14.93
2018-12-26T06:31:36.879Z,14.89
2018-12-26T06:32:36.873Z,14.92
2018-12-26T06:33:36.859Z,14.86
2018-12-26T06:34:36.844Z,14.96
2018-12-26T06:35:36.865Z,14.92
2018-12-26T06:36:36.837Z,14.89
2018-12-26T06:37:36.812Z,14.89
2018-12-26T06:38:36.799Z,14.89
2018-12-26T06:39:36.788Z,14.90
2018-12-26T06:40:36.782Z,14.82
2018-12-26T06:41:36.778Z,14.82
2018-12-26T06:42:36.754Z,14.85
2018-12-26T06:43:36.741Z,14.79
2018-12-26T06:44:36.735Z,14.85
2018-12-26T06:45:36.724Z,14.81
2018-12-26T06:46:36.730Z,14.85
2018-12-26T06:47:36.699Z,14.81
2018-12-26T06:48:36.690Z,14.81
2018-12-26T06:49:36.680Z,14.78
2018-12-26T06:50:36.666Z,14.90
2018-12-26T06:51:36.670Z,14.78
2018-12-26T06:52:36.645Z,14.86
2018-12-26T06:53:36.637Z,14.81
2018-12-26T06:54:36.625Z,14.82
2018-12-26T06:55:36.612Z,14.77
2018-12-26T06:56:36.622Z,14.79
2018-12-26T06:57:36.592Z,14.73
2018-12-26T06:58:36.578Z,14.79
2018-12-26T06:59:36.566Z,14.82
2018-12-26T07:00:36.561Z,14.81
2018-12-26T07:01:36.558Z,14.78
2018-12-26T07:02:36.539Z,14.79
2018-12-26T07:03:36.529Z,14.78
2018-12-26T07:04:36.517Z,14.81
2018-12-26T07:05:36.500Z,14.81
2018-12-26T07:06:36.502Z,14.73
2018-12-26T07:07:36.481Z,14.79
2018-12-26T07:08:36.480Z,14.82
2018-12-26T07:09:36.462Z,14.77
2018-12-26T07:10:36.452Z,14.74
2018-12-26T07:11:36.452Z,14.74
2018-12-26T07:12:36.421Z,14.71
2018-12-26T07:13:36.416Z,14.77
2018-12-26T07:14:36.405Z,14.70
2018-12-26T07:15:36.394Z,14.70
2018-12-26T07:16:36.403Z,14.70
2018-12-26T07:17:36.372Z,14.73
2018-12-26T07:18:36.356Z,14.74
2018-12-26T07:19:36.350Z,14.73
2018-12-26T07:20:36.343Z,14.73
2018-12-26T07:21:36.355Z,14.66
2018-12-26T07:22:36.320Z,14.77
2018-12-26T07:23:36.308Z,14.73
2018-12-26T07:24:36.299Z,14.62
2018-12-26T07:25:36.284Z,14.71
2018-12-26T07:26:36.272Z,14.79
2018-12-26T07:27:36.279Z,14.73
2018-12-26T07:28:36.252Z,14.71
2018-12-26T07:29:36.243Z,14.77
2018-12-26T07:30:36.251Z,14.71
2018-12-26T07:31:36.222Z,14.73
2018-12-26T07:32:36.227Z,14.73
2018-12-26T07:33:36.203Z,14.73
2018-12-26T07:34:42.108Z,14.70
2018-12-26T07:35:37.185Z,14.73
2018-12-26T07:36:36.177Z,14.74
2018-12-26T07:37:36.179Z,14.70
2018-12-26T07:38:36.144Z,14.78
2018-12-26T07:39:36.136Z,14.77
2018-12-26T07:40:36.121Z,14.70
2018-12-26T07:41:36.115Z,14.71
2018-12-26T07:42:36.117Z,14.71
2018-12-26T07:43:36.094Z,14.73
2018-12-26T07:44:36.088Z,14.71
2018-12-26T07:45:36.071Z,14.71
2018-12-26T07:46:36.063Z,14.73
2018-12-26T07:47:36.069Z,14.74
2018-12-26T07:48:36.043Z,14.63
2018-12-26T07:49:36.032Z,14.70
2018-12-26T07:50:36.036Z,14.71
2018-12-26T07:51:36.009Z,14.70
2018-12-26T07:52:36.013Z,14.66
2018-12-26T07:53:35.993Z,14.68
2018-12-26T07:54:35.978Z,14.61
2018-12-26T07:55:35.963Z,14.74
2018-12-26T07:56:35.956Z,14.68
2018-12-26T07:57:35.963Z,14.63
2018-12-26T07:58:35.939Z,14.71
2018-12-26T07:59:37.726Z,14.63
2018-12-26T08:00:35.917Z,14.67
2018-12-26T08:01:35.915Z,14.67
2018-12-26T08:02:35.915Z,14.66
2018-12-26T08:03:35.883Z,14.67
2018-12-26T08:04:35.880Z,14.70
2018-12-26T08:05:35.861Z,14.63
2018-12-26T08:06:35.863Z,14.62
2018-12-26T08:07:35.869Z,14.66
2018-12-26T08:08:35.828Z,14.67
2018-12-26T08:09:35.827Z,14.68
2018-12-26T08:10:35.822Z,14.62
2018-12-26T08:11:35.833Z,14.63
2018-12-26T08:12:35.839Z,14.62
2018-12-26T08:13:35.780Z,14.67
2018-12-26T08:14:35.846Z,14.66
2018-12-26T08:15:35.793Z,14.66
2018-12-26T08:16:35.761Z,14.67
2018-12-26T08:17:35.739Z,14.63
2018-12-26T08:18:35.843Z,14.63
2018-12-26T08:19:35.727Z,14.68
2018-12-26T08:20:35.745Z,14.66
2018-12-26T08:21:35.700Z,14.67
2018-12-26T08:22:35.771Z,14.63
2018-12-26T08:23:35.736Z,14.63
2018-12-26T08:24:35.672Z,14.62
2018-12-26T08:25:35.653Z,14.61
2018-12-26T08:26:35.642Z,14.67
2018-12-26T08:27:35.633Z,14.67
2018-12-26T08:28:35.635Z,14.66
2018-12-26T08:29:35.619Z,14.70
2018-12-26T08:30:35.599Z,14.62
2018-12-26T08:31:35.606Z,14.62
2018-12-26T08:32:35.586Z,14.67
2018-12-26T08:33:35.583Z,14.67
2018-12-26T08:34:37.508Z,14.63
2018-12-26T08:35:35.551Z,14.63
2018-12-26T08:36:35.555Z,14.63
2018-12-26T08:37:35.533Z,14.67
2018-12-26T08:38:35.537Z,14.66
2018-12-26T08:39:35.508Z,14.63
2018-12-26T08:40:35.496Z,14.70
2018-12-26T08:41:35.490Z,14.67
2018-12-26T08:42:35.478Z,14.63
2018-12-26T08:43:35.501Z,14.67
2018-12-26T08:44:35.460Z,14.68
2018-12-26T08:45:35.446Z,14.68
2018-12-26T08:46:35.438Z,14.63
2018-12-26T08:47:35.424Z,14.66
2018-12-26T08:48:35.413Z,14.63
2018-12-26T08:49:35.420Z,14.71
2018-12-26T08:50:35.396Z,14.58
2018-12-26T08:51:35.383Z,14.67
2018-12-26T08:52:35.376Z,14.62
2018-12-26T08:53:35.366Z,14.67
2018-12-26T08:54:35.382Z,14.62
2018-12-26T08:55:35.346Z,14.63
2018-12-26T08:56:35.340Z,14.71
2018-12-26T08:57:35.331Z,14.62
2018-12-26T08:58:35.549Z,14.56
2018-12-26T08:59:35.318Z,14.63
2018-12-26T09:00:35.340Z,14.67
2018-12-26T09:01:35.352Z,14.59
2018-12-26T09:02:35.272Z,14.55
2018-12-26T09:03:35.360Z,14.53
2018-12-26T09:04:35.263Z,14.68
2018-12-26T09:05:35.334Z,14.53
2018-12-26T09:06:35.232Z,14.53
2018-12-26T09:07:35.213Z,14.53
2018-12-26T09:08:35.215Z,14.53
2018-12-26T09:09:35.343Z,14.63
2018-12-26T09:10:35.239Z,14.56
2018-12-26T09:11:35.266Z,14.61
2018-12-26T09:12:35.173Z,14.58
2018-12-26T09:13:36.616Z,14.51
2018-12-26T09:14:35.159Z,14.52
2018-12-26T09:15:35.137Z,14.66
2018-12-26T09:16:35.129Z,14.66
2018-12-26T09:17:35.118Z,14.66
2018-12-26T09:18:35.108Z,14.63
2018-12-26T09:19:35.157Z,14.63
2018-12-26T09:20:35.083Z,14.66
2018-12-26T09:21:35.132Z,14.61
2018-12-26T09:22:35.126Z,14.61
2018-12-26T09:23:35.056Z,14.67
2018-12-26T09:24:35.059Z,14.73
2018-12-26T09:25:35.038Z,14.62
2018-12-26T09:26:35.022Z,14.62
2018-12-26T09:27:35.036Z,14.62
2018-12-26T09:28:43.628Z,14.68
2018-12-26T09:29:36.007Z,14.66
2018-12-26T09:30:34.986Z,14.71
2018-12-26T09:31:35.033Z,14.62
2018-12-26T09:32:34.966Z,14.67
2018-12-26T09:33:34.951Z,14.63
2018-12-26T09:34:34.984Z,14.61
2018-12-26T09:35:34.975Z,14.67
2018-12-26T09:36:34.929Z,14.67
2018-12-26T09:37:34.902Z,14.68
2018-12-26T09:38:34.897Z,14.68
2018-12-26T09:39:34.888Z,14.68
2018-12-26T09:40:34.971Z,14.68
2018-12-26T09:41:34.887Z,14.66
2018-12-26T09:42:34.900Z,14.63
2018-12-26T09:43:34.845Z,14.62
2018-12-26T09:44:34.887Z,14.63
2018-12-26T09:45:34.850Z,14.67
2018-12-26T09:46:34.861Z,14.59
2018-12-26T09:47:34.876Z,14.67
2018-12-26T09:48:34.839Z,14.63
2018-12-26T09:49:34.806Z,14.63
2018-12-26T09:50:34.953Z,14.71
2018-12-26T09:51:34.768Z,14.67
2018-12-26T09:52:34.793Z,14.62
2018-12-26T09:53:34.799Z,14.62
2018-12-26T09:54:34.796Z,14.68
2018-12-26T09:55:34.824Z,14.63
2018-12-26T09:56:34.745Z,14.62
2018-12-26T09:57:34.729Z,14.67
2018-12-26T09:58:34.764Z,14.68
2018-12-26T09:59:34.717Z,14.70
2018-12-26T10:00:34.762Z,14.63
2018-12-26T10:01:34.784Z,14.70
2018-12-26T10:02:34.694Z,14.67
2018-12-26T10:03:34.743Z,14.68
2018-12-26T10:04:34.757Z,14.66
2018-12-26T10:05:34.732Z,14.62
2018-12-26T10:06:34.671Z,14.70
2018-12-26T10:07:34.632Z,14.67
2018-12-26T10:08:34.628Z,14.68
2018-12-26T10:09:34.670Z,14.67
2018-12-26T10:10:34.678Z,14.70
2018-12-26T10:11:34.655Z,14.71
2018-12-26T10:12:34.618Z,14.67
2018-12-26T10:13:34.570Z,14.73
2018-12-26T10:14:34.541Z,14.70
2018-12-26T10:15:34.526Z,14.77
2018-12-26T10:16:34.544Z,14.70
2018-12-26T10:17:34.542Z,14.71
2018-12-26T10:18:34.591Z,14.71
2018-12-26T10:19:34.492Z,14.71
2018-12-26T10:20:34.582Z,14.63
2018-12-26T10:21:34.502Z,14.67
2018-12-26T10:22:34.508Z,14.70
2018-12-26T10:23:34.429Z,14.67
2018-12-26T10:24:34.443Z,14.67
2018-12-26T10:25:34.459Z,14.77
2018-12-26T10:26:34.474Z,14.70
2018-12-26T10:27:34.400Z,14.70
2018-12-26T10:28:34.446Z,14.70
2018-12-26T10:29:34.408Z,14.70
2018-12-26T10:30:34.463Z,14.66
2018-12-26T10:31:34.468Z,14.71
2018-12-26T10:32:34.404Z,14.70
2018-12-26T10:33:34.323Z,14.70
2018-12-26T10:34:34.314Z,14.67
2018-12-26T10:35:34.339Z,14.73
2018-12-26T10:36:34.329Z,14.70
2018-12-26T10:37:34.298Z,14.77
2018-12-26T10:38:34.275Z,14.70
2018-12-26T10:39:34.259Z,14.67
2018-12-26T10:40:34.256Z,14.74
2018-12-26T10:41:34.282Z,14.73
2018-12-26T10:42:34.233Z,14.73
2018-12-26T10:43:34.289Z,14.73
2018-12-26T10:44:34.209Z,14.71
2018-12-26T10:45:34.213Z,14.79
2018-12-26T10:46:34.292Z,14.79
2018-12-26T10:47:34.174Z,14.79
2018-12-26T10:48:34.260Z,14.63
2018-12-26T10:49:34.169Z,14.77
2018-12-26T10:50:34.247Z,14.73
2018-12-26T10:51:34.198Z,14.73
2018-12-26T10:52:34.170Z,14.79
2018-12-26T10:53:34.133Z,14.74
2018-12-26T10:54:34.154Z,14.74
2018-12-26T10:55:34.132Z,14.71
2018-12-26T10:56:34.339Z,14.73
2018-12-26T10:57:34.075Z,14.71
2018-12-26T10:58:34.075Z,14.73
2018-12-26T10:59:34.055Z,14.73
2018-12-26T11:00:34.147Z,14.68
2018-12-26T11:01:34.065Z,14.74
2018-12-26T11:02:34.041Z,14.71
2018-12-26T11:03:34.039Z,14.70
2018-12-26T11:04:34.130Z,14.71
2018-12-26T11:05:34.013Z,14.66
2018-12-26T11:06:34.119Z,14.73
2018-12-26T11:07:34.017Z,14.73
2018-12-26T11:08:33.995Z,14.74
2018-12-26T11:09:34.006Z,14.70
2018-12-26T11:10:33.979Z,14.74
2018-12-26T11:11:33.972Z,14.73
2018-12-26T11:12:34.004Z,14.66
2018-12-26T11:13:33.995Z,14.77
2018-12-26T11:14:33.935Z,14.63
2018-12-26T11:15:33.924Z,14.74
2018-12-26T11:16:33.880Z,14.78
2018-12-26T11:17:33.896Z,14.73
2018-12-26T11:18:33.947Z,14.63
2018-12-26T11:19:33.907Z,14.74
2018-12-26T11:20:33.837Z,14.71
2018-12-26T11:21:33.931Z,14.67
2018-12-26T11:22:33.872Z,14.74
2018-12-26T11:23:33.866Z,14.70
2018-12-26T11:24:33.803Z,14.67
2018-12-26T11:25:33.783Z,14.70
2018-12-26T11:26:33.791Z,14.67
2018-12-26T11:27:33.801Z,14.68
2018-12-26T11:28:33.836Z,14.63
2018-12-26T11:29:33.870Z,14.66
2018-12-26T11:30:33.737Z,14.61
2018-12-26T11:31:33.792Z,14.63
2018-12-26T11:32:33.828Z,14.62
2018-12-26T11:33:33.702Z,14.63
2018-12-26T11:34:33.708Z,14.63
2018-12-26T11:35:33.700Z,14.63
2018-12-26T11:36:33.716Z,14.62
2018-12-26T11:37:33.677Z,14.62
2018-12-26T11:38:33.697Z,14.62
2018-12-26T11:39:33.638Z,14.66
2018-12-26T11:40:33.636Z,14.61
2018-12-26T11:41:33.688Z,14.67
2018-12-26T11:42:33.615Z,14.66
2018-12-26T11:43:33.589Z,14.66
2018-12-26T11:44:33.578Z,14.61
2018-12-26T11:45:33.572Z,14.62
2018-12-26T11:46:33.556Z,14.63
2018-12-26T11:47:33.614Z,14.68
2018-12-26T11:48:33.558Z,14.66
2018-12-26T11:49:33.536Z,14.62
2018-12-26T11:50:33.622Z,14.66
2018-12-26T11:51:33.516Z,14.62
2018-12-26T11:52:33.518Z,14.62
2018-12-26T11:53:33.569Z,14.63
2018-12-26T11:54:33.485Z,14.63
2018-12-26T11:55:33.470Z,14.67
2018-12-26T11:56:33.499Z,14.62
2018-12-26T11:57:33.455Z,14.62
2018-12-26T11:58:33.436Z,14.63
2018-12-26T11:59:33.420Z,14.66
2018-12-26T12:00:33.416Z,14.61
2018-12-26T12:01:33.414Z,14.63
2018-12-26T12:02:33.511Z,14.63
2018-12-26T12:03:33.376Z,14.62
2018-12-26T12:04:33.369Z,14.67
2018-12-26T12:05:33.365Z,14.67
2018-12-26T12:06:33.346Z,14.58
2018-12-26T12:07:33.343Z,14.67
2018-12-26T12:08:33.338Z,14.67
2018-12-26T12:09:33.334Z,14.67
2018-12-26T12:10:33.329Z,14.71
2018-12-26T12:11:33.297Z,14.77
2018-12-26T12:12:33.292Z,14.70
2018-12-26T12:13:33.324Z,14.73
2018-12-26T12:14:33.261Z,14.74
2018-12-26T12:15:33.255Z,14.71
2018-12-26T12:16:33.249Z,14.68
2018-12-26T12:17:33.237Z,14.78
2018-12-26T12:18:33.257Z,14.74
2018-12-26T12:19:33.276Z,14.73
2018-12-26T12:20:33.213Z,14.73
2018-12-26T12:21:33.195Z,14.74
2018-12-26T12:22:33.188Z,14.70
2018-12-26T12:23:33.201Z,14.71
2018-12-26T12:24:33.168Z,14.78
2018-12-26T12:25:33.162Z,14.70
2018-12-26T12:26:33.156Z,14.74
2018-12-26T12:27:33.156Z,14.77
2018-12-26T12:28:33.135Z,14.74
2018-12-26T12:29:36.090Z,14.81
2018-12-26T12:30:33.101Z,14.68
2018-12-26T12:31:33.091Z,14.77
2018-12-26T12:32:33.082Z,14.77
2018-12-26T12:33:33.742Z,14.68
2018-12-26T12:34:33.064Z,14.73
2018-12-26T12:35:33.048Z,14.70
2018-12-26T12:36:33.038Z,14.79
2018-12-26T12:37:33.029Z,14.73
2018-12-26T12:38:33.045Z,14.77
2018-12-26T12:39:33.002Z,14.71
2018-12-26T12:40:33.003Z,14.71
2018-12-26T12:41:32.986Z,14.77
2018-12-26T12:42:32.974Z,14.77
2018-12-26T12:43:32.984Z,14.73
2018-12-26T12:44:33.052Z,14.78
2018-12-26T12:45:32.959Z,14.77
2018-12-26T12:46:32.937Z,14.71
2018-12-26T12:47:32.926Z,14.73
2018-12-26T12:48:32.919Z,14.74
2018-12-26T12:49:32.952Z,14.71
2018-12-26T12:50:32.896Z,14.71
2018-12-26T12:51:32.878Z,14.71
2018-12-26T12:52:32.871Z,14.68